»·PEaware :: AAL102 KRDD-KPDX

AAL102 :: KRDD-KPDX

FLIGHT INFORMATION

Flight Status: Arrived
Operator:
American Airlines
More flights by this operator :: More flights under this callsign
Pilot: Cole F. (14495)
Aircraft: AIRBUS A321
(A321)
More flights by this aircraft type
Origin: KRDD Redding Mun
United States
Destination: KPDX Portland Intl
United States
More flights between these airports :: More routes between these airports
Route: +OED MOXEE TMBRS2
File this flight plan on PilotEdge
Remarks:
Altitude:
(Current/Filed)
30,000ft
Speed:
(Current/Filed)
422kts
Departed: 08-Mar-20 09:21 AM
Arrived: 08-Mar-20 10:21 AM
Distance/Time
Traveled:
305nm/1:00
Distance/Time
To Go:
Arrived

Flight Plot

Page will automatically refresh every two minutes.

Flight plan parsing failed; only flown route is shown


Map Options




Map Legend


Flown Route
Filed Route
Departure Airport
Arrival Airport
Navaid (VOR, NDB)
Fix

Horizontal Profiles

Position Reports

Time Latitude Longitude Heading Altitude Ground
Speed
08-Mar-20 08:53 40.504859 -122.298952 315 470ft 0kts
08-Mar-20 08:54 40.504859 -122.298952 315 470ft 0kts
08-Mar-20 08:55 40.504859 -122.298952 315 470ft 0kts
08-Mar-20 08:56 40.504859 -122.298952 315 470ft 0kts
08-Mar-20 08:57 40.504859 -122.298952 315 470ft 0kts
08-Mar-20 08:58 40.504859 -122.298952 315 470ft 0kts
08-Mar-20 08:59 40.504859 -122.298952 315 470ft 0kts
08-Mar-20 09:00 40.504859 -122.298952 315 470ft 0kts
08-Mar-20 09:01 40.504859 -122.298952 315 470ft 0kts
08-Mar-20 09:02 40.504859 -122.298952 315 470ft 0kts
08-Mar-20 09:03 40.504859 -122.298952 315 470ft 0kts
08-Mar-20 09:04 40.504859 -122.298952 315 470ft 0kts
08-Mar-20 09:05 40.504859 -122.298952 315 470ft 0kts
08-Mar-20 09:06 40.504700 -122.298719 303 470ft 2kts
08-Mar-20 09:07 40.504289 -122.298204 358 470ft 2kts
08-Mar-20 09:08 40.503922 -122.298163 355 470ft 0kts
08-Mar-20 09:09 40.503922 -122.298163 355 470ft 0kts
08-Mar-20 09:10 40.503923 -122.298163 355 470ft 0kts
08-Mar-20 09:11 40.503937 -122.298164 355 470ft 0kts
08-Mar-20 09:12 40.503937 -122.298164 355 470ft 0kts
08-Mar-20 09:13 40.503939 -122.298165 355 470ft 0kts
08-Mar-20 09:14 40.506777 -122.298572 354 470ft 14kts
08-Mar-20 09:15 40.510561 -122.296307 0 470ft 18kts
08-Mar-20 09:16 40.515956 -122.296286 0 470ft 21kts
08-Mar-20 09:17 40.520015 -122.296216 33 470ft 0kts
08-Mar-20 09:18 40.520241 -122.295166 111 470ft 12kts
08-Mar-20 09:19 40.519736 -122.294852 178 470ft 0kts
08-Mar-20 09:20 40.488888 -122.296510 196 1312ft 175kts
08-Mar-20 09:21 40.488983 -122.343129 350 2965ft 198kts
08-Mar-20 09:22 40.553440 -122.352989 348 4438ft 270kts
08-Mar-20 09:23 40.629480 -122.374473 348 7314ft 286kts
08-Mar-20 09:24 40.709546 -122.397141 347 10033ft 299kts
08-Mar-20 09:25 40.797958 -122.422245 346 11941ft 340kts
08-Mar-20 09:26 40.892012 -122.448995 345 14466ft 351kts
08-Mar-20 09:27 40.989644 -122.476874 344 16773ft 363kts
08-Mar-20 09:28 41.090930 -122.505925 344 18876ft 374kts
08-Mar-20 09:29 41.192943 -122.535111 343 20751ft 385kts
08-Mar-20 09:30 41.299962 -122.565924 343 22484ft 395kts
08-Mar-20 09:31 41.409457 -122.597606 343 24072ft 403kts
08-Mar-20 09:33 41.520874 -122.629938 343 25711ft 406kts
08-Mar-20 09:34 41.633026 -122.662816 342 27125ft 410kts
08-Mar-20 09:35 41.746747 -122.696378 342 28314ft 419kts
08-Mar-20 09:36 41.862953 -122.730510 341 29420ft 427kts
08-Mar-20 09:37 41.981174 -122.765330 341 29995ft 432kts
08-Mar-20 09:38 42.099301 -122.800229 341 30016ft 432kts
08-Mar-20 09:39 42.217853 -122.835248 341 30036ft 431kts
08-Mar-20 09:40 42.336182 -122.870476 341 30043ft 431kts
08-Mar-20 09:41 42.454082 -122.904165 345 30043ft 434kts
08-Mar-20 09:42 42.577882 -122.905180 358 30043ft 443kts
08-Mar-20 09:43 42.702004 -122.892899 358 30043ft 444kts
08-Mar-20 09:44 42.826619 -122.881102 358 30045ft 444kts
08-Mar-20 09:45 42.950868 -122.869375 358 30048ft 444kts
08-Mar-20 09:46 43.075864 -122.857548 358 30063ft 444kts
08-Mar-20 09:47 43.200235 -122.845721 358 30070ft 444kts
08-Mar-20 09:48 43.324827 -122.833813 358 30072ft 444kts
08-Mar-20 09:49 43.449745 -122.821846 358 30072ft 444kts
08-Mar-20 09:50 43.574081 -122.809881 358 30077ft 444kts
08-Mar-20 09:50 43.677336 -122.799882 358 29613ft 440kts
08-Mar-20 09:52 43.818372 -122.786229 358 28003ft 428kts
08-Mar-20 09:53 43.936180 -122.774725 358 26430ft 415kts
08-Mar-20 09:54 44.050441 -122.763512 357 24848ft 401kts
08-Mar-20 09:54 44.142170 -122.754550 358 23511ft 391kts
08-Mar-20 09:55 44.250152 -122.743959 358 21859ft 381kts
08-Mar-20 09:57 44.372824 -122.731880 358 19968ft 370kts
08-Mar-20 09:57 44.458033 -122.723440 358 18596ft 364kts
08-Mar-20 09:58 44.558062 -122.713553 359 16987ft 356kts
08-Mar-20 10:00 44.672629 -122.702087 359 15192ft 345kts
08-Mar-20 10:00 44.751948 -122.694109 0 13937ft 337kts
08-Mar-20 10:01 44.844914 -122.684756 1 12451ft 327kts
08-Mar-20 10:02 44.934561 -122.675719 2 11006ft 315kts
08-Mar-20 10:03 45.015318 -122.667531 2 10961ft 289kts
08-Mar-20 10:04 45.095705 -122.659378 2 10966ft 290kts
08-Mar-20 10:05 45.176313 -122.651210 2 10175ft 289kts
08-Mar-20 10:06 45.255775 -122.648115 346 8878ft 277kts
08-Mar-20 10:07 45.328821 -122.686898 338 7885ft 274kts
08-Mar-20 10:08 45.399696 -122.725832 338 6630ft 267kts
08-Mar-20 10:09 45.468812 -122.763824 338 5408ft 261kts
08-Mar-20 10:10 45.532448 -122.798886 338 4977ft 221kts
08-Mar-20 10:11 45.585154 -122.838821 303 4980ft 219kts
08-Mar-20 10:12 45.616882 -122.912844 301 4579ft 218kts
08-Mar-20 10:13 45.655172 -122.960570 5 3351ft 217kts
08-Mar-20 10:14 45.685441 -122.926096 80 2982ft 180kts
08-Mar-20 10:15 45.687626 -122.872217 98 2966ft 182kts
08-Mar-20 10:16 45.662575 -122.794514 117 2718ft 160kts
08-Mar-20 10:17 45.635853 -122.725543 117 1693ft 148kts
08-Mar-20 10:18 45.615426 -122.673943 117 901ft 146kts
08-Mar-20 10:19 45.595899 -122.623519 116 125ft 139kts
08-Mar-20 10:20 45.587811 -122.600761 84 38ft 14kts
08-Mar-20 10:21 45.589390 -122.598969 40 38ft 0kts

Navigation Log

Ident Type
Flight plan parsing failed, navigation log unavailable